Main page
METAR-TAF:

METAR-TAF

Airports :

Mécheria Airport

Mécheria, Algeria

latitude: 34-56N, longitude: 000-26W, elevation: 1149 m

Current weather observation

The report was made 10 hours and 35 minutes ago, at 18:00 UTC
Wind 10 kt from the Southeast
Temperature 15°C
Humidity 33%
Pressure 1025 hPa
Visibility 10 km or more
no clouds below 1500 m and no cumulonimbus

METAR: DAAY 201800Z 14010KT CAVOK 15/M01 Q1025

Time: 05:35 (04:35 UTC)

Forecast

The report was made 11 hours and 35 minutes ago, at 17:00 UTC
Forecast valid from 20 at 18 UTC to 21 at 03 UTC
Wind 10 kt from the East/Southeast
Visibility 10 km or more
no clouds below 1500 m and no cumulonimbus
Becoming
from 20 at 20 UTC to 20 at 22 UTC
Wind 2 kt from variable directions

TAF: DAAY 201700Z 2018/2103 12010KT CAVOK BECMG 2020/2022 VRB02KT

Weather observations and forecasts of more than 4000 airports (METAR and TAF reports).

The available stations are represented by yellow and red dots on the map.

Hover mouse over dot to see the name of the station.

Then click to see weather observations and forecasts.

To change the map : click on the green buttons with a black cross to zoom in, on the green button with a dash to zoom out, or on the green arrows for adjacent maps.


METAR-TAF: